Flight Track Log - Related Links

Times and Time Zones

All times are in EDT time to prevent confusion due to time zone crossing. See the GJS3710 flight status page for this flight to view local times or setup timezone preferences in your user account.

Time Position Orientation Groundspeed Altitude Reporting Facility
EDT Latitude Longitude Course Direction KTS MPH feet Rate Location/Type
Sat 07:52:11 PM 41.9667 -87.8667 90° East 167 192 2,300  Level Chicago TRACON
Sat 07:53:11 PM 41.9833 -87.7833 75° East 213 245 4,300 1,935 Climbing Chicago TRACON
Sat 07:54:00 PM 42.1221 -87.4728 63° Northeast  Level FlightAware Approximate
Sat 07:54:15 PM 42.0086 -87.7100 65° Northeast 249 287 6,300  Level Chicago Center
Sat 07:55:00 PM 42.1747 -87.3262 66° East  Level FlightAware Approximate
Sat 07:55:17 PM 42.0483 -87.6150 61° Northeast 288 331 8,900  Level Chicago Center
Sat 07:56:00 PM 42.2242 -87.1775 66° East  Level FlightAware Approximate
Sat 07:56:18 PM 42.0903 -87.5172 60° Northeast 301 346 11,600  Level Chicago Center
Sat 07:57:00 PM 42.2667 -87.0266 90° East  Level FlightAware Approximate
Sat 07:57:20 PM 42.1347 -87.4100 61° Northeast 324 373 13,800  Level Chicago Center
Sat 07:58:21 PM 42.1819 -87.2642 66° East 367 422 15,500 1,512 Climbing Chicago Center
Sat 07:59:23 PM 42.1894 -87.1108 86° East 408 470 16,900 1,415 Climbing Chicago Center
Sat 08:00:24 PM 42.1969 -86.9500 86° East 430 495 18,400 1,707 Climbing Chicago Center
Sat 08:01:26 PM 42.2047 -86.7842 86° East 444 511 20,400 1,659 Climbing Chicago Center
Sat 08:02:27 PM 42.2114 -86.6203 87° East 451 519 21,800 1,220 Climbing Chicago Center
Sat 08:03:29 PM 42.2189 -86.4458 87° East 465 535 22,900 1,073 Climbing Chicago Center
Sat 08:04:30 PM 42.2267 -86.2628 87° East 482 555 24,000 1,122 Climbing Chicago Center
Sat 08:05:32 PM 42.2342 -86.0775 87° East 493 567 25,200 1,171 Climbing Chicago Center
Sat 08:06:33 PM 42.2417 -85.8667 87° East 502 578 26,400 1,131 Climbing Chicago Center
Sat 08:07:34 PM 42.2489 -85.6775 87° East 506 582 27,500 1,073 Climbing Chicago Center
Sat 08:08:36 PM 42.2547 -85.4861 88° East 512 589 28,600 1,073 Climbing Chicago Center
Sat 08:09:37 PM 42.2617 -85.2961 87° East 511 588 29,700 1,073 Climbing Chicago Center
Sat 08:10:39 PM 42.2697 -85.0628 87° East 519 597 30,800 968 Climbing Chicago Center
Sat 08:11:41 PM 42.2747 -84.8725 88° East 513 590 31,700 878 Climbing Chicago Center
Sat 08:12:42 PM 42.2811 -84.6808 87° East 513 590 32,600 927 Climbing Chicago Center
Sat 08:13:44 PM 42.2867 -84.4906 88° East 511 588 33,600 1,033 Climbing Chicago Center
Sat 08:14:44 PM 42.3108 -84.2869 81° East 508 585 34,700 1,050 Climbing Cleveland Center
Sat 08:15:44 PM 42.3375 -84.1003 79° East 508 585 35,700 950 Climbing Cleveland Center
Sat 08:16:44 PM 42.3639 -83.9161 79° East 502 578 36,600 900 Climbing Cleveland Center
Sat 08:17:44 PM 42.3897 -83.7375 79° East 497 572 37,500 900 Climbing Cleveland Center
Sat 08:18:44 PM 42.4072 -83.5500 83° East 497 572 38,400 750 Climbing Cleveland Center
Sat 08:19:44 PM 42.4222 -83.3706 83° East 491 565 39,000 300 Climbing Cleveland Center
Sat 08:20:44 PM 42.4344 -83.2025 84° East 491 565 39,000  Level Cleveland Center
Sat 08:21:44 PM 42.4469 -83.0144 85° East 496 571 39,000  Level Cleveland Center
Sat 08:22:44 PM 42.4614 -82.8236 84° East 501 577 39,000  Level Cleveland Center
Sat 08:23:44 PM 42.4733 -82.6297 85° East 501 577 39,000  Level Cleveland Center
Sat 08:24:44 PM 42.4869 -82.4386 84° East 507 583 39,000  Level Cleveland Center
Sat 08:25:44 PM 42.5003 -82.2447 85° East 513 590 39,000  Level Cleveland Center
Sat 08:26:44 PM 42.5111 -82.0564 85° East 513 590 39,000  Level Cleveland Center
Sat 08:27:44 PM 42.5239 -81.8622 85° East 513 590 39,000  Level Cleveland Center
Sat 08:28:44 PM 42.5386 -81.6597 84° East 507 583 39,000  Level Cleveland Center
Sat 08:29:44 PM 42.5506 -81.4653 85° East 507 583 39,000  Level Cleveland Center
Sat 08:30:44 PM 42.5622 -81.2794 85° East 500 575 39,000  Level Cleveland Center
Sat 08:31:44 PM 42.5694 -81.1272 86° East 500 575 39,000  Level Cleveland Center
Sat 08:32:44 PM 42.5828 -80.8933 85° East 500 575 39,000  Level Cleveland Center
Sat 08:33:44 PM 42.5936 -80.7017 86° East 507 583 39,000  Level Cleveland Center
Sat 08:34:44 PM 42.6039 -80.5042 86° East 517 595 39,000  Level Cleveland Center
Sat 08:35:44 PM 42.6142 -80.3322 85° East 517 595 39,000  Level Cleveland Center
Sat 08:36:44 PM 42.6219 -80.1344 87° East 518 596 39,000  Level Cleveland Center
Sat 08:37:44 PM 42.6333 -79.9200 86° East 518 596 39,000  Level Cleveland Center
Sat 08:38:44 PM 42.6425 -79.7222 86° East 518 596 39,000  Level Cleveland Center
Sat 08:39:44 PM 42.6492 -79.5275 87° East 518 596 39,000  Level Cleveland Center
Sat 08:40:44 PM 42.6619 -79.3297 85° East 518 596 39,000  Level Cleveland Center
Sat 08:41:44 PM 42.6678 -79.1347 88° East 518 596 39,000  Level Cleveland Center
Sat 08:42:44 PM 42.6736 -78.9369 88° East 518 596 39,000  Level Cleveland Center
Sat 08:43:44 PM 42.6811 -78.7417 87° East 518 596 39,000  Level Cleveland Center
Sat 08:44:44 PM 42.6881 -78.5439 87° East 518 596 39,000  Level Cleveland Center
Sat 08:45:44 PM 42.6947 -78.3431 87° East 518 596 39,000 -50 Level Cleveland Center
Sat 08:46:44 PM 42.7014 -78.1478 87° East 518 596 38,900 -600 Descending Cleveland Center
Sat 08:47:44 PM 42.7072 -77.9469 88° East 518 596 37,800 -1,050 Descending Cleveland Center
Sat 08:48:44 PM 42.7092 -77.7547 89° East 511 588 36,800 -950 Descending Cleveland Center
Sat 08:49:44 PM 42.7153 -77.5878 87° East 511 588 35,900 -1,018 Descending Cleveland Center
Sat 08:51:35 PM 42.7236 -77.2061 88° East 507 583 33,900 -1,053 Descending Boston Center
Sat 08:52:35 PM 42.7275 -77.0111 88° East 507 583 32,900 -1,050 Descending Boston Center
Sat 08:53:35 PM 42.7314 -76.8558 88° East 515 593 31,800 -1,136 Descending Boston Center
Sat 08:54:47 PM 42.7353 -76.6442 88° East 515 593 30,400 -1,273 Descending Boston Center
Sat 08:55:47 PM 42.7394 -76.4153 89° East 515 593 29,000 -800 Descending Boston Center
Sat 08:56:47 PM 42.7425 -76.2061 89° East 510 587 28,800 -1,200 Descending Boston Center
Sat 08:57:47 PM 42.7461 -76.0256 88° East 491 565 26,600 -2,200 Descending Boston Center
Sat 08:58:47 PM 42.7478 -75.8361 89° East 491 565 24,400 -2,150 Descending Boston Center
Sat 08:59:47 PM 42.7508 -75.6553 89° East 491 565 22,300 -2,050 Descending Boston Center
Sat 09:00:47 PM 42.7494 -75.4797 91° East 486 559 20,300 -2,000 Descending Boston Center
Sat 09:01:47 PM 42.7497 -75.3158 90° East 456 525 18,300 -1,950 Descending Boston Center
Sat 09:02:47 PM 42.7514 -75.1547 89° East 437 503 16,400 -1,950 Descending Boston Center
Sat 09:03:47 PM 42.7531 -74.9992 89° East 426 490 14,400 -2,000 Descending Boston Center
Sat 09:04:47 PM 42.7519 -74.8519 91° East 404 465 12,400 -1,862 Descending Boston Center
Sat 09:05:14 PM 42.7533 -74.7900 88° East 379 436 11,700 -1,300 Descending Boston Center
Sat 09:05:47 PM 42.7528 -74.7136 91° East 373 429 11,100 -636 Descending Boston Center
Sat 09:06:20 PM 42.7522 -74.6400 91° East 339 390 11,000 -100 Descending Boston Center
Sat 09:06:47 PM 42.7533 -74.5806 89° East 347 399 11,000  Level Boston Center
Sat 09:07:21 PM 42.7525 -74.5069 91° East 346 398 11,000 -100 Level Boston Center
Sat 09:07:47 PM 42.7431 -74.4558 104° East 341 392 10,900 -1,082 Descending Boston Center
Sat 09:08:22 PM 42.7339 -74.3933 101° East 308 354 9,900 -1,600 Descending Boston Center
Sat 09:08:47 PM 42.7242 -74.3422 105° East 322 371 9,300 -1,800 Descending Boston Center
Sat 09:09:22 PM 42.7128 -74.2825 105° East 296 341 8,100 -2,200 Descending Boston Center
Sat 09:09:47 PM 42.7031 -74.2342 105° East 296 341 7,100 -1,967 Descending Boston Center
Sat 09:10:23 PM 42.6914 -74.1744 105° East 298 343 6,100 -2,000 Descending Boston Center
Sat 09:10:47 PM 42.6797 -74.1261 108° East 296 341 5,100 -1,967 Descending Boston Center
Sat 09:11:24 PM 42.6639 -74.0636 109° East 290 334 4,100 -1,100 Descending Boston Center
Sat 09:11:47 PM 42.6539 -74.0294 112° Southeast 285 328 4,000 -600 Descending Boston Center
Sat 09:12:24 PM 42.6381 -73.9725 111° Southeast 238 274 3,500 -500 Descending Boston Center
Sat 09:12:47 PM 42.6322 -73.9442 106° East 260 299 3,500 -98 Level Boston Center
Sat 09:13:25 PM 42.6183 -73.8958 111° Southeast 225 259 3,400 -400 Descending Boston Center
Sat 09:13:47 PM 42.6103 -73.8647 109° East 241 277 3,100 -818 Descending Boston Center

Login

Don't have an account? Register now (free) for customized features, flight alerts, and more!